createdAt,value
2019-03-05T00:00:26.239Z,0.00
2019-03-05T00:01:26.984Z,0.00
2019-03-05T00:02:25.368Z,0.00
2019-03-05T00:03:25.333Z,0.00
2019-03-05T00:04:25.303Z,0.00
2019-03-05T00:05:25.269Z,0.00
2019-03-05T00:06:25.259Z,0.00
2019-03-05T00:07:26.075Z,0.00
2019-03-05T00:08:26.076Z,0.00
2019-03-05T00:09:26.084Z,0.00
2019-03-05T00:10:26.078Z,0.00
2019-03-05T00:11:25.102Z,0.00
2019-03-05T00:12:25.578Z,0.00
2019-03-05T00:13:25.010Z,0.00
2019-03-05T00:14:25.588Z,0.00
2019-03-05T00:15:24.939Z,0.00
2019-03-05T00:16:25.111Z,0.00
2019-03-05T00:17:24.880Z,0.00
2019-03-05T00:18:25.581Z,0.00
2019-03-05T00:19:24.816Z,0.00
2019-03-05T00:20:25.687Z,0.00
2019-03-05T00:21:24.776Z,0.00
2019-03-05T00:22:25.579Z,0.00
2019-03-05T00:23:24.684Z,0.00
2019-03-05T00:24:24.647Z,0.00
2019-03-05T00:25:24.616Z,0.00
2019-03-05T00:26:24.617Z,0.00
2019-03-05T00:27:25.078Z,0.00
2019-03-05T00:28:25.078Z,0.00
2019-03-05T00:29:24.487Z,0.00
2019-03-05T00:30:24.989Z,0.00
2019-03-05T00:31:24.463Z,0.00
2019-03-05T00:32:24.386Z,0.00
2019-03-05T00:33:24.357Z,0.00
2019-03-05T00:34:24.729Z,0.00
2019-03-05T00:35:24.290Z,0.00
2019-03-05T00:36:24.268Z,0.00
2019-03-05T00:37:25.087Z,0.00
2019-03-05T00:38:24.195Z,0.00
2019-03-05T00:39:24.194Z,0.00
2019-03-05T00:40:24.131Z,0.00
2019-03-05T00:41:24.096Z,0.00
2019-03-05T00:42:24.610Z,0.00
2019-03-05T00:43:24.051Z,0.00
2019-03-05T00:44:24.580Z,0.00
2019-03-05T00:45:23.970Z,0.00
2019-03-05T00:46:23.939Z,0.00
2019-03-05T00:47:24.490Z,0.00
2019-03-05T00:48:24.491Z,0.00
2019-03-05T00:49:23.841Z,0.00
2019-03-05T00:50:23.805Z,0.00
2019-03-05T00:51:25.257Z,0.00
2019-03-05T00:52:23.769Z,0.00
2019-03-05T00:53:23.710Z,0.00
2019-03-05T00:54:23.686Z,0.00
2019-03-05T00:55:23.648Z,0.00
2019-03-05T00:56:23.624Z,0.00
2019-03-05T00:57:23.841Z,0.00
2019-03-05T00:58:25.488Z,0.00
2019-03-05T00:59:23.518Z,0.00
2019-03-05T01:00:24.085Z,0.00
2019-03-05T01:01:23.455Z,0.00
2019-03-05T01:02:23.619Z,0.00
2019-03-05T01:03:23.388Z,0.00
2019-03-05T01:04:24.086Z,0.00
2019-03-05T01:05:23.328Z,0.00
2019-03-05T01:06:23.291Z,0.00
2019-03-05T01:07:23.294Z,0.00
2019-03-05T01:08:23.226Z,0.00
2019-03-05T01:09:23.200Z,0.00
2019-03-05T01:10:23.988Z,0.00
2019-03-05T01:11:24.087Z,0.00
2019-03-05T01:12:23.094Z,0.00
2019-03-05T01:13:23.095Z,0.00
2019-03-05T01:14:23.030Z,0.00
2019-03-05T01:15:23.585Z,0.00
2019-03-05T01:16:22.969Z,0.00
2019-03-05T01:17:22.938Z,0.00
2019-03-05T01:18:22.936Z,0.00
2019-03-05T01:19:22.865Z,0.00
2019-03-05T01:20:22.836Z,0.00
2019-03-05T01:21:23.590Z,0.00
2019-03-05T01:22:23.047Z,0.00
2019-03-05T01:23:23.147Z,0.00
2019-03-05T01:24:22.702Z,0.00
2019-03-05T01:25:22.671Z,0.00
2019-03-05T01:26:22.652Z,0.00
2019-03-05T01:27:23.587Z,0.00
2019-03-05T01:28:22.599Z,0.00
2019-03-05T01:29:22.540Z,0.00
2019-03-05T01:30:22.508Z,0.00
2019-03-05T01:31:22.471Z,0.00
2019-03-05T01:32:22.438Z,0.00
2019-03-05T01:33:22.429Z,0.00
2019-03-05T01:34:22.455Z,0.00
2019-03-05T01:35:22.343Z,0.00
2019-03-05T01:36:22.313Z,0.00
2019-03-05T01:37:22.279Z,0.00
2019-03-05T01:38:22.624Z,0.00
2019-03-05T01:39:22.212Z,0.00
2019-03-05T01:40:22.186Z,0.00
2019-03-05T01:41:23.090Z,0.00
2019-03-05T01:42:22.113Z,0.00
2019-03-05T01:43:22.079Z,0.00
2019-03-05T01:44:22.122Z,0.00
2019-03-05T01:45:22.015Z,0.00
2019-03-05T01:46:21.979Z,0.00
2019-03-05T01:47:22.591Z,0.00
2019-03-05T01:48:22.600Z,0.00
2019-03-05T01:49:21.912Z,0.00
2019-03-05T01:50:21.848Z,0.00
2019-03-05T01:51:21.818Z,0.00
2019-03-05T01:52:21.779Z,0.00
2019-03-05T01:53:21.746Z,0.00
2019-03-05T01:54:21.740Z,0.00
2019-03-05T01:55:21.685Z,0.00
2019-03-05T01:56:21.647Z,0.00
2019-03-05T01:57:21.628Z,0.00
2019-03-05T01:58:22.086Z,0.00
2019-03-05T01:59:21.567Z,0.00
2019-03-05T02:00:22.495Z,0.00
2019-03-05T02:01:21.480Z,0.00
2019-03-05T02:02:21.451Z,0.00
2019-03-05T02:03:21.408Z,0.00
2019-03-05T02:04:21.436Z,0.00
2019-03-05T02:05:21.348Z,0.00
2019-03-05T02:06:21.317Z,0.00
2019-03-05T02:07:21.278Z,0.00
2019-03-05T02:08:22.096Z,0.00
2019-03-05T02:09:21.236Z,0.00
2019-03-05T02:10:21.187Z,0.00
2019-03-05T02:11:21.145Z,0.00
2019-03-05T02:12:21.143Z,0.00
2019-03-05T02:13:21.120Z,0.00
2019-03-05T02:14:25.996Z,0.00
2019-03-05T02:15:21.058Z,0.00
2019-03-05T02:16:20.976Z,0.00
2019-03-05T02:17:21.594Z,0.00
2019-03-05T02:18:21.593Z,0.00
2019-03-05T02:19:21.605Z,0.00
2019-03-05T02:20:21.138Z,0.00
2019-03-05T02:21:20.811Z,0.00
2019-03-05T02:22:20.805Z,0.00
2019-03-05T02:23:21.595Z,0.00
2019-03-05T02:24:21.594Z,0.00
2019-03-05T02:25:21.236Z,0.00
2019-03-05T02:26:20.741Z,0.00
2019-03-05T02:29:18.496Z,0.00
2019-03-05T02:30:18.005Z,0.00
2019-03-05T02:31:17.446Z,0.00
2019-03-05T02:32:17.389Z,0.00
2019-03-05T02:33:17.350Z,0.00
2019-03-05T02:34:17.317Z,0.00
2019-03-05T02:35:17.299Z,0.00
2019-03-05T02:36:17.274Z,0.00
2019-03-05T02:37:17.225Z,0.00
2019-03-05T02:38:20.095Z,0.00
2019-03-05T02:39:17.156Z,0.00
2019-03-05T02:40:18.106Z,0.00
2019-03-05T02:41:17.113Z,0.00
2019-03-05T02:42:17.360Z,0.00
2019-03-05T02:43:17.016Z,0.00
2019-03-05T02:44:17.006Z,0.00
2019-03-05T02:45:16.955Z,0.00
2019-03-05T02:46:17.135Z,0.00
2019-03-05T02:47:17.595Z,0.00
2019-03-05T02:48:17.599Z,0.00
2019-03-05T02:49:16.822Z,0.00
2019-03-05T02:50:16.786Z,0.00
2019-03-05T02:51:16.799Z,0.00
2019-03-05T02:52:16.720Z,0.00
2019-03-05T02:53:16.686Z,0.00
2019-03-05T02:54:17.603Z,0.00
2019-03-05T02:55:16.622Z,0.00
2019-03-05T02:56:16.586Z,0.00
2019-03-05T02:57:16.573Z,0.00
2019-03-05T02:58:17.095Z,0.00
2019-03-05T02:59:16.486Z,0.00
2019-03-05T03:00:16.453Z,0.00
2019-03-05T03:01:16.419Z,0.00
2019-03-05T03:02:16.422Z,0.00
2019-03-05T03:03:16.357Z,0.00
2019-03-05T03:04:16.323Z,0.00
2019-03-05T03:05:16.372Z,0.00
2019-03-05T03:06:16.255Z,0.00
2019-03-05T03:07:16.375Z,0.00
2019-03-05T03:08:16.188Z,0.00
2019-03-05T03:09:16.159Z,0.00
2019-03-05T03:10:16.138Z,0.00
2019-03-05T03:11:16.091Z,0.00
2019-03-05T03:12:16.079Z,0.00
2019-03-05T03:13:16.030Z,0.00
2019-03-05T03:14:15.991Z,0.00
2019-03-05T03:15:15.963Z,0.00
2019-03-05T03:16:16.597Z,0.00
2019-03-05T03:17:15.922Z,0.00
2019-03-05T03:18:16.600Z,0.00
2019-03-05T03:19:15.833Z,0.00
2019-03-05T03:20:16.039Z,0.00
2019-03-05T03:21:15.765Z,0.00
2019-03-05T03:22:15.766Z,0.00
2019-03-05T03:23:15.700Z,0.00
2019-03-05T03:24:16.597Z,0.00
2019-03-05T03:25:15.632Z,0.00
2019-03-05T03:26:16.101Z,0.00
2019-03-05T03:27:16.101Z,0.00
2019-03-05T03:28:15.633Z,0.00
2019-03-05T03:29:16.101Z,0.00
2019-03-05T03:30:15.481Z,0.00
2019-03-05T03:31:15.443Z,0.00
2019-03-05T03:32:16.108Z,0.00
2019-03-05T03:33:15.399Z,0.00
2019-03-05T03:34:15.340Z,0.00
2019-03-05T03:35:15.302Z,0.00
2019-03-05T03:36:15.279Z,0.00
2019-03-05T03:37:16.099Z,0.00
2019-03-05T03:38:15.668Z,0.00
2019-03-05T03:39:15.173Z,0.00
2019-03-05T03:40:16.103Z,0.00
2019-03-05T03:41:15.109Z,0.00
2019-03-05T03:42:15.075Z,0.00
2019-03-05T03:43:16.633Z,0.00
2019-03-05T03:44:15.023Z,0.00
2019-03-05T03:45:14.979Z,0.00
2019-03-05T03:46:15.601Z,0.00
2019-03-05T03:47:14.912Z,0.00
2019-03-05T03:48:15.657Z,0.00
2019-03-05T03:49:14.849Z,0.00
2019-03-05T03:50:15.601Z,0.00
2019-03-05T03:51:14.781Z,0.00
2019-03-05T03:52:14.755Z,0.00
2019-03-05T03:53:14.746Z,0.00
2019-03-05T03:54:15.603Z,0.00
2019-03-05T03:55:14.653Z,0.00
2019-03-05T03:56:14.622Z,0.00
2019-03-05T03:57:15.108Z,0.00
2019-03-05T03:58:14.639Z,0.00
2019-03-05T03:59:14.522Z,0.00
2019-03-05T04:00:14.488Z,0.00
2019-03-05T04:01:14.476Z,0.00
2019-03-05T04:02:14.434Z,0.00
2019-03-05T04:03:14.712Z,0.00
2019-03-05T04:04:14.382Z,0.00
2019-03-05T04:05:14.482Z,0.00
2019-03-05T04:06:14.293Z,0.00
2019-03-05T04:07:15.105Z,0.00
2019-03-05T04:08:15.169Z,0.00
2019-03-05T04:09:17.109Z,0.00
2019-03-05T04:10:14.192Z,0.00
2019-03-05T04:11:14.283Z,0.00
2019-03-05T04:12:14.605Z,0.00
2019-03-05T04:13:14.098Z,0.00
2019-03-05T04:14:14.609Z,0.00
2019-03-05T04:15:14.004Z,0.00
2019-03-05T04:16:13.973Z,0.00
2019-03-05T04:17:14.036Z,0.00
2019-03-05T04:18:14.143Z,0.00
2019-03-05T04:19:15.012Z,0.00
2019-03-05T04:20:13.882Z,0.00
2019-03-05T04:21:14.616Z,0.00
2019-03-05T04:22:13.823Z,0.00
2019-03-05T04:23:13.793Z,0.00
2019-03-05T04:24:14.614Z,0.00
2019-03-05T04:25:13.684Z,0.00
2019-03-05T04:26:13.637Z,0.00
2019-03-05T04:27:13.608Z,0.00
2019-03-05T04:28:13.578Z,0.00
2019-03-05T04:29:13.683Z,0.00
2019-03-05T04:30:14.121Z,0.00
2019-03-05T04:31:13.529Z,0.00
2019-03-05T04:32:14.129Z,0.00
2019-03-05T04:33:13.432Z,0.00
2019-03-05T04:34:13.646Z,0.00
2019-03-05T04:35:13.343Z,0.00
2019-03-05T04:36:14.112Z,0.00
2019-03-05T04:37:14.019Z,0.00
2019-03-05T04:38:13.246Z,0.00
2019-03-05T04:39:13.247Z,0.00
2019-03-05T04:40:13.186Z,0.00
2019-03-05T04:41:13.185Z,0.00
2019-03-05T04:42:14.111Z,0.00
2019-03-05T04:43:13.086Z,0.00
2019-03-05T04:44:13.183Z,0.00
2019-03-05T04:45:13.019Z,0.00
2019-03-05T04:46:13.616Z,0.00
2019-03-05T04:47:12.953Z,0.00
2019-03-05T04:48:12.921Z,0.00
2019-03-05T04:49:12.960Z,0.00
2019-03-05T04:50:12.857Z,0.00
2019-03-05T04:51:13.613Z,0.00
2019-03-05T04:52:13.610Z,0.00
2019-03-05T04:53:12.757Z,0.00
2019-03-05T04:54:12.729Z,0.00
2019-03-05T04:55:12.716Z,0.00
2019-03-05T04:56:12.665Z,0.00
2019-03-05T04:57:12.626Z,0.00
2019-03-05T04:58:12.596Z,0.00
2019-03-05T04:59:13.516Z,0.00
2019-03-05T05:00:12.648Z,0.00
2019-03-05T05:01:12.496Z,0.00
2019-03-05T05:02:12.463Z,0.00
2019-03-05T05:03:12.446Z,0.00
2019-03-05T05:04:12.403Z,0.00
2019-03-05T05:05:12.405Z,0.00
2019-03-05T05:06:12.336Z,0.00
2019-03-05T05:07:12.305Z,0.00
2019-03-05T05:08:12.272Z,0.00
2019-03-05T05:09:12.233Z,0.00
2019-03-05T05:10:12.243Z,0.00
2019-03-05T05:11:12.173Z,0.00
2019-03-05T05:12:12.150Z,0.00
2019-03-05T05:13:12.106Z,0.00
2019-03-05T05:14:12.073Z,0.00
2019-03-05T05:15:12.078Z,0.00
2019-03-05T05:16:12.611Z,0.00
2019-03-05T05:17:11.986Z,0.00
2019-03-05T05:18:11.942Z,0.00
2019-03-05T05:19:11.906Z,0.00
2019-03-05T05:20:11.913Z,0.00
2019-03-05T05:21:11.853Z,4.00
2019-03-05T05:22:11.820Z,0.00
2019-03-05T05:23:11.782Z,4.00
2019-03-05T05:24:11.767Z,4.00
2019-03-05T05:25:11.740Z,4.00
2019-03-05T05:26:12.615Z,8.00
2019-03-05T05:27:11.646Z,4.00
2019-03-05T05:28:11.612Z,4.00
2019-03-05T05:29:11.582Z,8.00
2019-03-05T05:30:11.571Z,8.00
2019-03-05T05:31:11.524Z,12.00
2019-03-05T05:32:12.118Z,12.00
2019-03-05T05:33:12.114Z,16.00
2019-03-05T05:34:11.437Z,16.00
2019-03-05T05:35:12.024Z,24.00
2019-03-05T05:36:12.123Z,28.00
2019-03-05T05:37:12.114Z,32.00
2019-03-05T05:38:12.123Z,40.00
2019-03-05T05:39:12.152Z,48.00
2019-03-05T05:40:11.277Z,56.00
2019-03-05T05:41:11.191Z,68.00
2019-03-05T05:42:12.123Z,76.00
2019-03-05T05:43:11.207Z,84.00
2019-03-05T05:44:11.617Z,96.00
2019-03-05T05:45:11.103Z,108.00
2019-03-05T05:46:11.170Z,116.00
2019-03-05T05:47:11.573Z,128.00
2019-03-05T05:48:10.966Z,136.00
2019-03-05T05:49:14.022Z,148.00
2019-03-05T05:50:10.894Z,160.00
2019-03-05T05:51:10.888Z,168.00
2019-03-05T05:52:11.666Z,184.00
2019-03-05T05:53:10.801Z,196.00
2019-03-05T05:54:11.619Z,212.00
2019-03-05T05:55:10.726Z,228.00
2019-03-05T05:56:10.866Z,244.00
2019-03-05T05:57:10.664Z,252.00
2019-03-05T05:58:10.630Z,256.00
2019-03-05T05:59:10.597Z,272.00
2019-03-05T06:00:10.581Z,292.00
2019-03-05T06:01:10.553Z,320.00
2019-03-05T06:02:11.116Z,352.00
2019-03-05T06:03:11.143Z,384.00
2019-03-05T06:04:10.432Z,420.00
2019-03-05T06:05:10.397Z,460.00
2019-03-05T06:06:10.394Z,504.00
2019-03-05T06:07:10.329Z,556.00
2019-03-05T06:08:10.301Z,608.00
2019-03-05T06:09:10.273Z,664.00
2019-03-05T06:10:10.247Z,716.00
2019-03-05T06:11:10.228Z,776.00
2019-03-05T06:12:11.122Z,832.00
2019-03-05T06:13:10.138Z,888.00
2019-03-05T06:14:10.111Z,952.00
2019-03-05T06:15:10.073Z,1016.00
2019-03-05T06:16:10.149Z,1084.00
2019-03-05T06:17:10.001Z,1152.00
2019-03-05T06:18:10.618Z,1220.00
2019-03-05T06:19:10.768Z,1292.00
2019-03-05T06:20:09.907Z,1356.00
2019-03-05T06:21:09.908Z,1424.00
2019-03-05T06:22:09.846Z,1484.00
2019-03-05T06:23:09.812Z,1548.00
2019-03-05T06:24:10.621Z,1600.00
2019-03-05T06:25:09.740Z,1652.00
2019-03-05T06:26:10.153Z,1704.00
2019-03-05T06:27:09.702Z,1756.00
2019-03-05T06:28:09.651Z,1808.00
2019-03-05T06:29:09.625Z,1856.00
2019-03-05T06:30:09.580Z,1912.00
2019-03-05T06:31:09.571Z,1960.00
2019-03-05T06:32:09.513Z,2012.00
2019-03-05T06:33:09.484Z,2060.00
2019-03-05T06:34:09.445Z,2096.00
2019-03-05T06:35:09.432Z,2136.00
2019-03-05T06:36:09.415Z,2180.00
2019-03-05T06:37:09.356Z,2228.00
2019-03-05T06:38:09.325Z,2284.00
2019-03-05T06:39:09.293Z,2352.00
2019-03-05T06:40:09.251Z,2428.00
2019-03-05T06:41:09.262Z,2516.00
2019-03-05T06:42:09.186Z,2612.00
2019-03-05T06:43:09.147Z,2720.00
2019-03-05T06:44:09.565Z,2832.00
2019-03-05T06:45:09.086Z,2952.00
2019-03-05T06:46:09.059Z,3064.00
2019-03-05T06:47:09.043Z,3184.00
2019-03-05T06:48:08.986Z,3300.00
2019-03-05T06:49:08.964Z,3416.00
2019-03-05T06:50:08.921Z,3540.00
2019-03-05T06:51:08.900Z,3664.00
2019-03-05T06:52:11.696Z,3784.00
2019-03-05T06:53:08.823Z,3904.00
2019-03-05T06:54:08.791Z,4032.00
2019-03-05T06:55:08.757Z,4160.00
2019-03-05T06:56:09.532Z,4280.00
2019-03-05T06:57:08.718Z,4388.00
2019-03-05T06:58:08.662Z,4492.00
2019-03-05T06:59:08.627Z,4592.00
2019-03-05T07:00:12.031Z,4680.00
2019-03-05T07:01:08.578Z,4776.00
2019-03-05T07:02:08.554Z,4856.00
2019-03-05T07:03:08.493Z,4940.00
2019-03-05T07:04:08.466Z,5016.00
2019-03-05T07:05:08.435Z,5076.00
2019-03-05T07:06:11.031Z,5120.00
2019-03-05T07:07:12.033Z,5156.00
2019-03-05T07:08:08.336Z,5176.00
2019-03-05T07:09:08.303Z,5176.00
2019-03-05T07:10:08.272Z,5160.00
2019-03-05T07:11:08.243Z,5132.00
2019-03-05T07:12:08.229Z,5088.00
2019-03-05T07:13:08.173Z,5044.00
2019-03-05T07:14:08.139Z,4984.00
2019-03-05T07:15:08.113Z,4932.00
2019-03-05T07:16:08.079Z,4852.00
2019-03-05T07:17:08.063Z,4760.00
2019-03-05T07:18:08.013Z,4676.00
2019-03-05T07:19:07.978Z,4632.00
2019-03-05T07:20:07.961Z,4612.00
2019-03-05T07:21:07.931Z,4640.00
2019-03-05T07:22:07.915Z,4688.00
2019-03-05T07:23:07.872Z,4748.00
2019-03-05T07:24:07.822Z,4788.00
2019-03-05T07:25:07.792Z,4764.00
2019-03-05T07:26:07.756Z,4908.00
2019-03-05T07:27:07.736Z,4940.00
2019-03-05T07:28:07.711Z,5072.00
2019-03-05T07:29:07.672Z,4876.00
2019-03-05T07:30:07.632Z,5280.00
2019-03-05T07:31:07.596Z,5792.00
2019-03-05T07:32:07.565Z,6852.00
2019-03-05T07:33:07.551Z,6324.00
2019-03-05T07:34:07.501Z,6336.00
2019-03-05T07:35:07.465Z,6128.00
2019-03-05T07:36:07.434Z,6184.00
2019-03-05T07:37:07.406Z,6468.00
2019-03-05T07:38:07.391Z,6116.00
2019-03-05T07:39:07.340Z,5784.00
2019-03-05T07:40:07.307Z,5284.00
2019-03-05T07:41:07.272Z,5424.00
2019-03-05T07:42:07.252Z,5232.00
2019-03-05T07:43:07.253Z,5256.00
2019-03-05T07:44:07.181Z,5320.00
2019-03-05T07:45:07.155Z,4548.00
2019-03-05T07:46:07.119Z,5788.00
2019-03-05T07:47:07.093Z,6932.00
2019-03-05T07:48:07.145Z,5832.00
2019-03-05T07:49:07.021Z,5452.00
2019-03-05T07:50:06.992Z,4592.00
2019-03-05T07:51:06.961Z,4464.00
2019-03-05T07:52:06.928Z,5096.00
2019-03-05T07:53:06.894Z,6092.00
2019-03-05T07:54:06.893Z,5208.00
2019-03-05T07:55:13.728Z,4444.00
2019-03-05T07:56:06.801Z,5016.00
2019-03-05T07:57:07.091Z,5380.00
2019-03-05T07:58:06.738Z,5168.00
2019-03-05T07:59:07.170Z,5752.00
2019-03-05T08:00:06.678Z,5660.00
2019-03-05T08:01:06.652Z,5048.00
2019-03-05T08:02:06.611Z,6256.00
2019-03-05T08:03:06.588Z,6848.00
2019-03-05T08:04:11.540Z,5032.00
2019-03-05T08:05:06.514Z,4160.00
2019-03-05T08:06:06.488Z,4072.00
2019-03-05T08:07:06.452Z,4080.00
2019-03-05T08:08:06.419Z,4200.00
2019-03-05T08:09:06.416Z,4536.00
2019-03-05T08:10:06.363Z,5556.00
2019-03-05T08:11:06.328Z,5584.00
2019-03-05T08:12:06.294Z,6044.00
2019-03-05T08:13:06.315Z,6592.00
2019-03-05T08:14:06.731Z,5412.00
2019-03-05T08:15:06.210Z,5440.00
2019-03-05T08:16:06.175Z,5592.00
2019-03-05T08:17:06.141Z,6796.00
2019-03-05T08:18:06.108Z,6956.00
2019-03-05T08:19:06.077Z,5936.00
2019-03-05T08:20:06.064Z,4628.00
2019-03-05T08:21:06.637Z,4968.00
2019-03-05T08:22:08.730Z,5904.00
2019-03-05T08:23:05.957Z,7576.00
2019-03-05T08:24:06.636Z,6612.00
2019-03-05T08:25:06.172Z,6240.00
2019-03-05T08:26:05.849Z,6588.00
2019-03-05T08:27:05.826Z,6300.00
2019-03-05T08:28:06.552Z,6608.00
2019-03-05T08:29:05.757Z,5672.00
2019-03-05T08:30:13.701Z,5804.00
2019-03-05T08:31:06.638Z,5604.00
2019-03-05T08:32:06.641Z,5544.00
2019-03-05T08:33:06.146Z,4684.00
2019-03-05T08:34:05.602Z,4524.00
2019-03-05T08:35:05.601Z,4560.00
2019-03-05T08:36:05.537Z,4976.00
2019-03-05T08:37:05.510Z,5580.00
2019-03-05T08:38:05.471Z,5532.00
2019-03-05T08:39:05.448Z,5788.00
2019-03-05T08:40:07.044Z,6444.00
2019-03-05T08:41:05.380Z,6972.00
2019-03-05T08:42:05.354Z,7116.00
2019-03-05T08:43:05.351Z,6932.00
2019-03-05T08:44:05.291Z,7728.00
2019-03-05T08:45:05.295Z,8144.00
2019-03-05T08:46:05.223Z,7312.00
2019-03-05T08:47:05.196Z,6828.00
2019-03-05T08:48:05.167Z,6384.00
2019-03-05T08:49:05.130Z,5224.00
2019-03-05T08:50:05.130Z,4860.00
2019-03-05T08:51:05.075Z,5032.00
2019-03-05T08:52:05.046Z,5112.00
2019-03-05T08:53:05.009Z,5236.00
2019-03-05T08:54:07.614Z,5304.00
2019-03-05T08:55:04.962Z,5104.00
2019-03-05T08:56:04.917Z,5244.00
2019-03-05T08:57:04.875Z,5448.00
2019-03-05T08:58:04.846Z,5372.00
2019-03-05T08:59:04.828Z,5492.00
2019-03-05T09:00:04.782Z,5448.00
2019-03-05T09:01:04.776Z,5708.00
2019-03-05T09:02:04.720Z,6316.00
2019-03-05T09:03:04.693Z,7772.00
2019-03-05T09:04:04.657Z,9000.00
2019-03-05T09:05:04.624Z,9712.00
2019-03-05T09:06:04.615Z,10852.00
2019-03-05T09:07:04.564Z,10004.00
2019-03-05T09:08:05.146Z,10056.00
2019-03-05T09:09:04.496Z,9440.00
2019-03-05T09:10:04.468Z,9964.00
2019-03-05T09:11:04.462Z,11612.00
2019-03-05T09:12:04.406Z,12096.00
2019-03-05T09:13:04.374Z,13028.00
2019-03-05T09:14:04.341Z,10000.00
2019-03-05T09:15:04.312Z,8624.00
2019-03-05T09:16:04.303Z,9088.00
2019-03-05T09:17:04.251Z,11220.00
2019-03-05T09:18:04.221Z,10520.00
2019-03-05T09:19:04.191Z,11772.00
2019-03-05T09:20:04.165Z,10020.00
2019-03-05T09:21:04.199Z,11452.00
2019-03-05T09:22:04.105Z,10636.00
2019-03-05T09:23:04.066Z,11068.00
2019-03-05T09:24:04.032Z,11748.00
2019-03-05T09:25:04.009Z,11272.00
2019-03-05T09:26:04.077Z,12420.00
2019-03-05T09:27:03.945Z,11040.00
2019-03-05T09:28:04.006Z,9608.00
2019-03-05T09:29:03.882Z,10048.00
2019-03-05T09:30:03.916Z,9856.00
2019-03-05T09:31:03.861Z,10116.00
2019-03-05T09:32:03.790Z,10632.00
2019-03-05T09:33:04.606Z,9456.00
2019-03-05T09:34:03.744Z,8460.00
2019-03-05T09:35:03.702Z,9220.00
2019-03-05T09:36:03.694Z,9516.00
2019-03-05T09:37:03.648Z,9216.00
2019-03-05T09:38:03.615Z,8636.00
2019-03-05T09:39:03.584Z,9272.00
2019-03-05T09:40:04.059Z,7792.00
2019-03-05T09:41:03.553Z,6880.00
2019-03-05T09:42:03.491Z,7236.00
2019-03-05T09:43:03.467Z,8592.00
2019-03-05T09:44:03.441Z,9872.00
2019-03-05T09:45:03.403Z,10740.00
2019-03-05T09:46:03.375Z,9852.00
2019-03-05T09:47:03.374Z,9360.00
2019-03-05T09:48:03.317Z,9068.00
2019-03-05T09:49:03.279Z,9716.00
2019-03-05T09:50:04.060Z,11540.00
2019-03-05T09:51:03.220Z,12488.00
2019-03-05T09:52:03.224Z,13692.00
2019-03-05T09:53:03.158Z,12984.00
2019-03-05T09:54:03.145Z,11712.00
2019-03-05T09:55:03.096Z,11612.00
2019-03-05T09:56:03.079Z,11352.00
2019-03-05T09:57:03.071Z,10848.00
2019-03-05T09:58:07.938Z,9804.00
2019-03-05T09:59:02.984Z,10580.00
2019-03-05T10:00:03.651Z,10800.00
2019-03-05T10:01:03.695Z,10060.00
2019-03-05T10:02:02.912Z,10072.00
2019-03-05T10:03:06.558Z,10320.00
2019-03-05T10:04:02.889Z,11460.00
2019-03-05T10:05:05.653Z,12908.00
2019-03-05T10:06:02.774Z,13332.00
2019-03-05T10:07:02.764Z,13176.00
2019-03-05T10:08:02.711Z,13032.00
2019-03-05T10:09:03.666Z,12752.00
2019-03-05T10:10:02.658Z,11876.00
2019-03-05T10:11:02.618Z,12200.00
2019-03-05T10:12:02.614Z,12208.00
2019-03-05T10:13:04.083Z,11576.00
2019-03-05T10:14:02.531Z,12576.00
2019-03-05T10:15:02.502Z,12120.00
2019-03-05T10:16:02.484Z,10896.00
2019-03-05T10:17:02.484Z,9436.00
2019-03-05T10:18:12.309Z,7400.00
2019-03-05T10:19:02.397Z,5792.00
2019-03-05T10:20:02.381Z,5792.00
2019-03-05T10:21:02.327Z,5680.00
2019-03-05T10:22:02.688Z,6064.00
2019-03-05T10:23:03.155Z,7080.00
2019-03-05T10:24:10.056Z,8388.00
2019-03-05T10:25:06.042Z,9700.00
2019-03-05T10:26:02.208Z,10408.00
2019-03-05T10:27:02.172Z,10652.00
2019-03-05T10:28:02.115Z,11156.00
2019-03-05T10:29:02.656Z,10948.00
2019-03-05T10:30:02.056Z,11072.00
2019-03-05T10:31:02.024Z,10360.00
2019-03-05T10:32:02.192Z,9184.00
2019-03-05T10:33:01.961Z,7456.00
2019-03-05T10:34:01.935Z,6872.00
2019-03-05T10:35:01.911Z,7472.00
2019-03-05T10:36:01.874Z,7596.00
2019-03-05T10:37:12.106Z,7192.00
2019-03-05T10:38:02.664Z,6436.00
2019-03-05T10:39:01.786Z,6320.00
2019-03-05T10:40:01.756Z,7408.00
2019-03-05T10:41:01.725Z,7736.00
2019-03-05T10:42:01.715Z,6876.00
2019-03-05T10:43:08.411Z,6228.00
2019-03-05T10:44:01.634Z,6004.00
2019-03-05T10:45:01.627Z,5500.00
2019-03-05T10:46:02.176Z,5168.00
2019-03-05T10:47:01.578Z,5120.00
2019-03-05T10:48:02.164Z,5364.00
2019-03-05T10:49:01.514Z,4920.00
2019-03-05T10:50:01.458Z,5140.00
2019-03-05T10:51:01.449Z,5636.00
2019-03-05T10:52:01.397Z,6668.00
2019-03-05T10:53:01.695Z,8872.00
2019-03-05T10:54:02.265Z,10488.00
2019-03-05T10:55:01.302Z,11056.00
2019-03-05T10:56:01.273Z,11488.00
2019-03-05T10:57:01.247Z,10976.00
2019-03-05T10:58:01.237Z,8984.00
2019-03-05T10:59:02.070Z,6840.00
2019-03-05T11:00:01.158Z,5828.00
2019-03-05T11:01:01.124Z,5648.00
2019-03-05T11:02:01.103Z,4840.00
2019-03-05T11:03:01.200Z,4424.00
2019-03-05T11:04:01.031Z,4352.00
2019-03-05T11:05:01.003Z,4620.00
2019-03-05T11:06:00.975Z,5556.00
2019-03-05T11:07:01.014Z,7060.00
2019-03-05T11:08:01.200Z,8840.00
2019-03-05T11:09:00.880Z,9896.00
2019-03-05T11:10:00.850Z,10364.00
2019-03-05T11:11:00.820Z,11312.00
2019-03-05T11:12:00.796Z,12552.00
2019-03-05T11:13:00.783Z,13152.00
2019-03-05T11:14:00.735Z,12712.00
2019-03-05T11:15:00.714Z,11800.00
2019-03-05T11:16:00.682Z,10084.00
2019-03-05T11:17:00.704Z,8692.00
2019-03-05T11:18:00.634Z,7880.00
2019-03-05T11:19:00.586Z,8172.00
2019-03-05T11:20:00.552Z,8680.00
2019-03-05T11:21:00.525Z,8208.00
2019-03-05T11:22:00.491Z,8444.00
2019-03-05T11:23:00.488Z,8672.00
2019-03-05T11:24:00.438Z,9096.00
2019-03-05T11:25:00.406Z,9868.00
2019-03-05T11:26:00.379Z,10728.00
2019-03-05T11:27:01.168Z,10784.00
2019-03-05T11:28:00.698Z,10720.00
2019-03-05T11:29:00.287Z,10632.00
2019-03-05T11:30:00.364Z,10372.00
2019-03-05T11:31:00.231Z,8632.00
2019-03-05T11:32:00.201Z,7728.00
2019-03-05T11:33:00.203Z,7808.00
2019-03-05T11:34:00.141Z,7640.00
2019-03-05T11:35:00.284Z,8864.00
2019-03-05T11:36:00.085Z,11316.00
2019-03-05T11:37:00.103Z,12700.00
2019-03-05T11:38:00.045Z,13492.00
2019-03-05T11:38:59.992Z,13672.00
2019-03-05T11:39:59.965Z,13720.00
2019-03-05T11:40:59.936Z,13420.00
2019-03-05T11:41:59.911Z,12880.00
2019-03-05T11:43:00.209Z,12772.00
2019-03-05T11:43:59.847Z,12944.00
2019-03-05T11:45:07.659Z,12600.00
2019-03-05T11:45:59.788Z,11188.00
2019-03-05T11:46:59.761Z,9832.00
2019-03-05T11:47:59.764Z,8624.00
2019-03-05T11:48:59.707Z,8256.00
2019-03-05T11:49:59.675Z,8596.00
2019-03-05T11:50:59.654Z,8064.00
2019-03-05T11:51:59.621Z,7136.00
2019-03-05T11:52:59.615Z,6452.00
2019-03-05T11:53:59.570Z,6360.00
2019-03-05T11:54:59.536Z,6928.00
2019-03-05T11:55:59.600Z,7896.00
2019-03-05T11:57:01.466Z,8296.00
2019-03-05T11:57:59.496Z,8232.00
2019-03-05T11:58:59.413Z,8460.00
2019-03-05T11:59:59.383Z,7444.00
2019-03-05T12:00:59.362Z,6208.00
2019-03-05T12:01:59.328Z,5356.00
2019-03-05T12:02:59.296Z,5352.00
2019-03-05T12:03:59.710Z,6276.00
2019-03-05T12:04:59.313Z,7344.00
2019-03-05T12:06:00.181Z,7852.00
2019-03-05T12:06:59.179Z,7672.00
2019-03-05T12:07:59.162Z,7660.00
2019-03-05T12:08:59.139Z,8828.00
2019-03-05T12:09:59.086Z,10620.00
2019-03-05T12:10:59.055Z,11740.00
2019-03-05T12:12:01.692Z,11072.00
2019-03-05T12:12:59.008Z,8956.00
2019-03-05T12:13:58.995Z,6820.00
2019-03-05T12:14:59.676Z,5668.00
2019-03-05T12:15:58.907Z,5140.00
2019-03-05T12:17:02.598Z,4872.00
2019-03-05T12:17:58.871Z,4800.00
2019-03-05T12:18:58.841Z,4780.00
2019-03-05T12:19:58.794Z,4732.00
2019-03-05T12:20:58.758Z,4704.00
2019-03-05T12:21:58.730Z,4768.00
2019-03-05T12:22:58.702Z,4676.00
2019-03-05T12:23:58.696Z,4572.00
2019-03-05T12:25:01.831Z,4572.00
2019-03-05T12:25:58.609Z,4572.00
2019-03-05T12:26:59.182Z,4616.00
2019-03-05T12:28:09.404Z,4660.00
2019-03-05T12:28:58.540Z,4736.00
2019-03-05T12:29:58.485Z,4864.00
2019-03-05T12:30:58.462Z,5040.00
2019-03-05T12:31:58.426Z,5320.00
2019-03-05T12:32:58.396Z,5548.00
2019-03-05T12:33:58.386Z,6008.00
2019-03-05T12:34:58.336Z,6684.00
2019-03-05T12:35:58.305Z,8284.00